Time;durP1;ratioP1;P1;durP2;ratioP2;P2;SDS_P1;SDS_P2;PMS_P1;PMS_P2;Temp;Humidity;BMP_temperature;BMP_pressure;BME280_temperature;BME280_humidity;BME280_pressure;Samples;Min_cycle;Max_cycle;Signal;HPM_P1;HPM_P2
2023/04/30 00:01:08;;;;;;;9.80;7.43;;;11.40;99.90;;;;;;5042315;28;20671;-78
2023/04/30 00:03:35;;;;;;;7.53;6.63;;;11.40;99.90;;;;;;5029085;28;20219;-78
2023/04/30 00:06:02;;;;;;;8.30;6.87;;;11.30;99.90;;;;;;5017435;28;20210;-78
2023/04/30 00:08:29;;;;;;;8.60;7.60;;;11.30;99.90;;;;;;5023773;28;20239;-77
2023/04/30 00:10:55;;;;;;;9.50;8.50;;;11.30;99.90;;;;;;5033838;28;20205;-78
2023/04/30 00:13:22;;;;;;;10.10;9.10;;;11.30;99.90;;;;;;5033582;28;20188;-78
2023/04/30 00:15:51;;;;;;;11.00;9.90;;;11.30;99.90;;;;;;5033801;28;20206;-78
2023/04/30 00:18:17;;;;;;;10.80;9.70;;;11.30;99.90;;;;;;5037822;28;20299;-77
2023/04/30 00:20:44;;;;;;;10.83;9.80;;;11.30;99.90;;;;;;5037730;28;20601;-78
2023/04/30 00:23:11;;;;;;;10.90;9.87;;;11.30;99.90;;;;;;5055882;28;20228;-77
2023/04/30 00:25:38;;;;;;;10.73;9.63;;;11.40;99.90;;;;;;5056036;28;20262;-77
2023/04/30 00:28:05;;;;;;;10.17;8.93;;;11.40;99.90;;;;;;5035237;28;20446;-78
2023/04/30 00:30:32;;;;;;;12.70;9.53;;;11.40;99.90;;;;;;5038359;28;20212;-77
2023/04/30 00:33:00;;;;;;;9.80;8.63;;;11.40;99.90;;;;;;5040407;28;20659;-77
2023/04/30 00:35:27;;;;;;;10.07;8.90;;;11.40;99.90;;;;;;5055516;28;20624;-78
2023/04/30 00:37:54;;;;;;;8.40;7.60;;;11.30;99.90;;;;;;5052328;28;20232;-77
2023/04/30 00:40:21;;;;;;;10.07;8.33;;;11.40;99.90;;;;;;5036908;28;20300;-77
2023/04/30 00:42:48;;;;;;;10.97;8.27;;;11.40;99.90;;;;;;5037231;28;20248;-77
2023/04/30 00:45:16;;;;;;;9.90;8.07;;;11.40;99.90;;;;;;5055391;28;20278;-77
2023/04/30 00:47:43;;;;;;;9.97;7.80;;;11.40;99.90;;;;;;5046478;22;20658;-78
2023/04/30 00:50:14;;;;;;;10.60;8.37;;;11.40;99.90;;;;;;5016401;28;20483;-77
2023/04/30 00:52:41;;;;;;;9.97;8.60;;;11.40;99.90;;;;;;5008192;28;20221;-78
2023/04/30 00:55:10;;;;;;;9.50;7.83;;;11.40;99.90;;;;;;5044944;28;20201;-77
2023/04/30 00:57:37;;;;;;;8.70;7.73;;;11.40;99.90;;;;;;5013477;28;20225;-78
2023/04/30 01:00:09;;;;;;;9.87;7.83;;;11.40;99.90;;;;;;5030002;28;20206;-78
2023/04/30 01:02:36;;;;;;;8.30;7.43;;;11.40;99.90;;;;;;5035765;28;20198;-78
2023/04/30 01:05:05;;;;;;;7.87;7.07;;;11.40;99.90;;;;;;5031567;28;20232;-77
2023/04/30 01:07:35;;;;;;;7.77;6.83;;;11.40;99.90;;;;;;5024541;28;20222;-77
2023/04/30 01:10:02;;;;;;;9.37;8.17;;;11.40;99.90;;;;;;5008862;28;20229;-77
2023/04/30 01:12:37;;;;;;;7.90;6.57;;;11.40;99.90;;;;;;5033679;28;20206;-77
2023/04/30 01:15:10;;;;;;;9.43;7.70;;;11.40;99.90;;;;;;5042947;28;20188;-78
2023/04/30 01:17:41;;;;;;;8.77;7.30;;;11.40;99.90;;;;;;5030575;28;20224;-78
2023/04/30 01:20:10;;;;;;;8.47;7.37;;;11.40;99.90;;;;;;5036388;28;20276;-77
2023/04/30 01:22:50;;;;;;;10.80;7.30;;;11.40;99.90;;;;;;5045835;28;20216;-78
2023/04/30 01:25:42;;;;;;;7.97;7.17;;;11.30;99.90;;;;;;5041345;28;20660;-78
2023/04/30 01:28:14;;;;;;;8.07;7.27;;;11.30;99.90;;;;;;5037270;28;20276;-78
2023/04/30 01:30:44;;;;;;;9.53;7.77;;;11.30;99.90;;;;;;5030940;28;20702;-78
2023/04/30 01:33:11;;;;;;;8.27;6.80;;;11.30;99.90;;;;;;5047700;28;20217;-78
2023/04/30 01:35:53;;;;;;;10.93;7.53;;;11.20;99.90;;;;;;5010594;28;20201;-78
2023/04/30 01:38:32;;;;;;;6.73;6.03;;;11.20;99.90;;;;;;5027180;28;20562;-78
2023/04/30 01:41:09;;;;;;;7.80;7.03;;;11.20;99.90;;;;;;5012454;28;20670;-78
2023/04/30 01:44:00;;;;;;;8.17;7.33;;;11.20;99.90;;;;;;5035018;28;20188;-78
2023/04/30 01:46:30;;;;;;;7.43;6.73;;;11.20;99.90;;;;;;5030922;28;20575;-79
2023/04/30 01:49:06;;;;;;;8.53;6.80;;;11.10;99.90;;;;;;5011775;28;20550;-78
2023/04/30 01:51:42;;;;;;;7.30;6.47;;;11.20;99.90;;;;;;5034256;28;20704;-79
2023/04/30 01:54:20;;;;;;;8.53;7.00;;;11.20;99.90;;;;;;5007538;28;20737;-78
2023/04/30 01:56:53;;;;;;;9.33;8.43;;;11.10;99.90;;;;;;5007832;28;20236;-78
2023/04/30 01:59:23;;;;;;;8.97;8.17;;;11.10;99.90;;;;;;5032497;28;20225;-77
2023/04/30 02:01:50;;;;;;;9.60;8.70;;;11.10;99.90;;;;;;5009269;28;20198;-78
2023/04/30 02:04:16;;;;;;;10.50;9.50;;;11.10;99.90;;;;;;5006313;28;20197;-78
2023/04/30 02:06:43;;;;;;;10.57;9.57;;;11.10;99.90;;;;;;5032506;28;20229;-77
2023/04/30 02:09:10;;;;;;;10.17;9.17;;;11.10;99.90;;;;;;5009789;28;20208;-79
2023/04/30 02:11:37;;;;;;;9.80;8.90;;;11.00;99.90;;;;;;5015989;28;20233;-78
2023/04/30 02:14:05;;;;;;;9.03;8.13;;;11.00;99.90;;;;;;5045639;28;20231;-78
2023/04/30 02:16:33;;;;;;;8.67;7.77;;;11.00;99.90;;;;;;5032531;28;20677;-78
2023/04/30 02:19:00;;;;;;;7.17;6.47;;;11.00;99.90;;;;;;5021681;28;20663;-79
2023/04/30 02:21:27;;;;;;;8.13;7.30;;;11.00;99.90;;;;;;5007805;28;20193;-78
2023/04/30 02:23:54;;;;;;;9.03;7.33;;;11.00;99.90;;;;;;5026501;28;20642;-78
2023/04/30 02:26:21;;;;;;;7.70;6.67;;;10.90;99.90;;;;;;5014652;28;20212;-78
2023/04/30 02:28:47;;;;;;;7.93;6.90;;;10.80;99.90;;;;;;5016211;28;20232;-79
2023/04/30 02:31:14;;;;;;;8.03;7.23;;;10.80;99.90;;;;;;5046717;28;20228;-78
2023/04/30 02:33:42;;;;;;;8.43;7.50;;;10.80;99.90;;;;;;5016146;28;20225;-78
2023/04/30 02:36:09;;;;;;;8.63;7.83;;;10.80;99.90;;;;;;5025617;28;20200;-78
2023/04/30 02:38:36;;;;;;;8.90;7.87;;;10.70;99.90;;;;;;5033475;28;20221;-79
2023/04/30 02:41:03;;;;;;;10.67;7.87;;;10.70;99.90;;;;;;5024961;28;20197;-77
2023/04/30 02:43:30;;;;;;;8.40;7.60;;;10.60;99.90;;;;;;5009536;28;20685;-78
2023/04/30 02:45:57;;;;;;;9.20;8.37;;;10.60;99.90;;;;;;5037555;28;20207;-78
2023/04/30 02:48:23;;;;;;;8.50;7.70;;;10.50;99.90;;;;;;5035883;28;20227;-78
2023/04/30 02:50:52;;;;;;;8.27;7.57;;;10.40;99.90;;;;;;5028522;28;20223;-78
2023/04/30 02:53:18;;;;;;;8.37;7.30;;;10.40;99.90;;;;;;4999507;28;20713;-77
2023/04/30 02:55:46;;;;;;;10.57;8.27;;;10.30;99.90;;;;;;5007602;28;20204;-79
2023/04/30 02:58:13;;;;;;;8.50;7.70;;;10.20;99.90;;;;;;5030868;28;20316;-77
2023/04/30 03:00:39;;;;;;;7.97;7.20;;;10.20;99.90;;;;;;5031155;28;20193;-78
2023/04/30 03:03:06;;;;;;;8.33;7.57;;;10.10;99.90;;;;;;5007159;28;20233;-79
2023/04/30 03:05:33;;;;;;;8.17;7.37;;;10.10;99.90;;;;;;5008553;28;20204;-78
2023/04/30 03:08:01;;;;;;;8.63;7.83;;;10.00;99.90;;;;;;5017618;28;20622;-77
2023/04/30 03:10:28;;;;;;;8.70;7.90;;;9.90;99.90;;;;;;5007467;28;20655;-77
2023/04/30 03:12:55;;;;;;;9.20;8.30;;;9.80;99.90;;;;;;5009150;28;20238;-78
2023/04/30 03:15:21;;;;;;;9.50;8.57;;;9.80;99.90;;;;;;5011678;28;20196;-78
2023/04/30 03:17:48;;;;;;;9.43;8.53;;;9.80;99.90;;;;;;5034014;28;20224;-80
2023/04/30 03:20:15;;;;;;;9.60;8.73;;;9.70;99.90;;;;;;5016082;28;20200;-82
2023/04/30 03:22:42;;;;;;;8.77;8.07;;;9.70;99.90;;;;;;5028300;28;20203;-81
2023/04/30 03:25:11;;;;;;;9.60;8.70;;;9.70;99.90;;;;;;5040886;28;20220;-80
2023/04/30 03:27:38;;;;;;;9.17;8.37;;;9.60;99.90;;;;;;5015402;28;20231;-82
2023/04/30 03:30:07;;;;;;;10.03;9.03;;;9.60;99.90;;;;;;5042927;28;20200;-82
2023/04/30 03:32:34;;;;;;;9.00;8.20;;;9.60;99.90;;;;;;5026563;28;20514;-82
2023/04/30 03:35:02;;;;;;;8.30;7.60;;;9.50;99.90;;;;;;5042650;28;20240;-81
2023/04/30 03:37:29;;;;;;;9.90;8.90;;;9.50;99.90;;;;;;5044954;28;20243;-82
2023/04/30 03:39:56;;;;;;;8.77;7.87;;;9.40;99.90;;;;;;5028786;28;20219;-81
2023/04/30 03:42:24;;;;;;;9.63;8.70;;;9.40;99.90;;;;;;5007453;28;20201;-82
2023/04/30 03:44:51;;;;;;;9.97;8.87;;;9.40;99.90;;;;;;5026294;28;20184;-82
2023/04/30 03:47:18;;;;;;;10.30;9.30;;;9.40;99.90;;;;;;5034374;28;20219;-82
2023/04/30 03:49:44;;;;;;;11.17;10.07;;;9.40;99.90;;;;;;5028704;28;20292;-82
2023/04/30 03:52:11;;;;;;;10.83;9.83;;;9.40;99.90;;;;;;5034433;28;20762;-80
2023/04/30 03:54:38;;;;;;;10.63;9.73;;;9.30;99.90;;;;;;5020712;28;20211;-82
2023/04/30 03:57:09;;;;;;;9.40;8.50;;;9.40;99.90;;;;;;5018697;28;20577;-82
2023/04/30 03:59:37;;;;;;;12.00;10.43;;;9.30;99.90;;;;;;5027186;28;20204;-82
2023/04/30 04:02:05;;;;;;;10.40;9.40;;;9.30;99.90;;;;;;5018615;28;20260;-81
2023/04/30 04:04:32;;;;;;;10.87;9.63;;;9.30;99.90;;;;;;5028243;28;20234;-82
2023/04/30 04:06:58;;;;;;;11.47;10.30;;;9.30;99.90;;;;;;5016360;28;20213;-80
2023/04/30 04:09:26;;;;;;;10.00;9.00;;;9.30;99.90;;;;;;5022735;28;20203;-77
2023/04/30 04:11:52;;;;;;;8.97;7.57;;;9.20;99.90;;;;;;5010048;28;20689;-76
2023/04/30 04:14:20;;;;;;;8.83;7.70;;;9.20;99.90;;;;;;5008755;28;20212;-80
2023/04/30 04:16:48;;;;;;;7.97;7.17;;;9.10;99.90;;;;;;5017605;28;20290;-79
2023/04/30 04:19:15;;;;;;;8.87;8.07;;;9.10;99.90;;;;;;5009507;28;20649;-78
2023/04/30 04:21:43;;;;;;;10.00;9.00;;;9.10;99.90;;;;;;5012621;28;20584;-79
2023/04/30 04:24:15;;;;;;;10.17;9.17;;;9.10;99.90;;;;;;5029670;28;20184;-79
2023/04/30 04:26:41;;;;;;;9.30;8.30;;;9.10;99.90;;;;;;5031763;28;20327;-79
2023/04/30 04:29:11;;;;;;;10.03;9.03;;;9.10;99.90;;;;;;5009606;28;20203;-78
2023/04/30 04:31:41;;;;;;;10.70;9.67;;;9.10;99.90;;;;;;5034342;28;20555;-81
2023/04/30 04:34:09;;;;;;;9.97;8.97;;;9.10;99.90;;;;;;5023982;28;20211;-78
2023/04/30 04:36:36;;;;;;;9.77;8.70;;;9.20;99.90;;;;;;5031161;28;20754;-78
2023/04/30 04:39:03;;;;;;;9.80;8.90;;;9.20;99.90;;;;;;5029628;28;20284;-79
2023/04/30 04:41:31;;;;;;;9.87;8.87;;;9.30;99.90;;;;;;5033109;28;20228;-79
2023/04/30 04:43:58;;;;;;;9.40;8.53;;;9.40;99.90;;;;;;5014903;28;20196;-81
2023/04/30 04:46:27;;;;;;;9.40;8.57;;;9.50;99.90;;;;;;5014974;28;20200;-81
2023/04/30 04:48:54;;;;;;;11.03;7.13;;;9.70;99.90;;;;;;5031799;28;20202;-79
2023/04/30 04:51:22;;;;;;;10.10;9.27;;;9.80;99.90;;;;;;5022970;28;20195;-78
2023/04/30 04:53:49;;;;;;;9.03;8.13;;;9.90;99.90;;;;;;5008860;28;20207;-78
2023/04/30 04:56:16;;;;;;;11.17;8.13;;;10.00;99.90;;;;;;5045807;28;20295;-78
2023/04/30 04:58:45;;;;;;;11.23;7.33;;;10.10;99.90;;;;;;5007123;28;20468;-78
2023/04/30 05:01:12;;;;;;;11.43;8.23;;;10.30;99.90;;;;;;5024139;28;20288;-80
2023/04/30 05:03:39;;;;;;;9.90;9.00;;;10.40;99.90;;;;;;5007545;28;20295;-79
2023/04/30 05:06:06;;;;;;;10.60;9.53;;;10.70;99.90;;;;;;5040414;28;20640;-78
2023/04/30 05:08:34;;;;;;;8.00;7.00;;;11.20;99.90;;;;;;5009519;28;20243;-80
2023/04/30 05:11:01;;;;;;;8.47;6.57;;;11.70;99.90;;;;;;5017627;28;20257;-79
2023/04/30 05:13:28;;;;;;;6.63;5.87;;;12.10;99.90;;;;;;5006521;28;20221;-79
2023/04/30 05:15:55;;;;;;;6.73;5.53;;;12.60;99.90;;;;;;5038392;28;20210;-79
2023/04/30 05:18:22;;;;;;;8.47;7.70;;;13.10;99.90;;;;;;5008830;28;20219;-79
2023/04/30 05:20:49;;;;;;;6.97;5.77;;;13.20;99.90;;;;;;5026371;28;20222;-79
2023/04/30 05:23:15;;;;;;;5.90;5.30;;;13.30;99.90;;;;;;5033060;28;20469;-79
2023/04/30 05:25:44;;;;;;;6.37;5.77;;;13.60;99.90;;;;;;5030336;28;20220;-79
2023/04/30 05:28:11;;;;;;;7.43;6.63;;;13.40;99.90;;;;;;5030131;28;20303;-79
2023/04/30 05:30:38;;;;;;;8.63;6.73;;;13.40;99.90;;;;;;5025871;28;20192;-78
2023/04/30 05:33:05;;;;;;;8.33;6.07;;;13.60;99.90;;;;;;5023593;28;20568;-80
2023/04/30 05:35:34;;;;;;;8.53;6.37;;;13.80;99.90;;;;;;5008277;28;20226;-79
2023/04/30 05:38:01;;;;;;;7.90;6.70;;;13.70;99.90;;;;;;5025853;28;20712;-79
2023/04/30 05:40:28;;;;;;;7.20;6.50;;;13.80;99.90;;;;;;5006116;28;20689;-79
2023/04/30 05:42:56;;;;;;;7.13;6.07;;;14.20;99.90;;;;;;5036323;28;20758;-78
2023/04/30 05:45:23;;;;;;;7.73;6.53;;;14.60;99.90;;;;;;5023699;28;20687;-79
2023/04/30 05:47:50;;;;;;;7.50;6.27;;;14.70;99.90;;;;;;5008782;28;20256;-79
2023/04/30 05:50:17;;;;;;;8.73;6.60;;;14.80;99.90;;;;;;5024616;28;20372;-79
2023/04/30 05:52:44;;;;;;;9.63;7.07;;;14.70;99.90;;;;;;5032339;28;20721;-78
2023/04/30 05:55:11;;;;;;;8.13;6.47;;;14.40;99.90;;;;;;5024363;28;20219;-79
2023/04/30 05:57:37;;;;;;;8.53;6.50;;;14.20;99.90;;;;;;5006752;28;20216;-79
2023/04/30 06:00:07;;;;;;;7.20;6.07;;;14.30;99.90;;;;;;5030908;28;20254;-79
2023/04/30 06:02:43;;;;;;;8.27;7.03;;;14.30;99.90;;;;;;5013582;28;20208;-79
2023/04/30 06:05:10;;;;;;;8.40;7.37;;;14.20;99.90;;;;;;5037576;28;20198;-79
2023/04/30 06:07:37;;;;;;;8.10;6.97;;;14.10;99.90;;;;;;5025949;28;20287;-79
2023/04/30 06:10:05;;;;;;;7.47;6.50;;;14.10;99.90;;;;;;5026054;28;20694;-79
2023/04/30 06:12:32;;;;;;;10.50;7.83;;;14.40;99.90;;;;;;5026351;28;20617;-79
2023/04/30 06:14:59;;;;;;;10.10;6.67;;;14.40;99.90;;;;;;5034800;28;20261;-79
2023/04/30 06:17:27;;;;;;;7.53;6.83;;;14.30;99.90;;;;;;5034842;28;20284;-79
2023/04/30 06:19:54;;;;;;;7.67;6.53;;;14.60;99.90;;;;;;5009013;28;20565;-79
2023/04/30 06:22:20;;;;;;;7.03;6.07;;;14.80;99.90;;;;;;5026571;28;20667;-79
2023/04/30 06:24:47;;;;;;;7.30;6.53;;;14.80;99.90;;;;;;5030339;28;20192;-79
2023/04/30 06:27:14;;;;;;;8.67;6.87;;;14.90;99.90;;;;;;5028535;28;20204;-79
2023/04/30 06:29:41;;;;;;;10.07;7.23;;;14.70;99.90;;;;;;5026968;28;20195;-79
2023/04/30 06:32:08;;;;;;;8.57;6.90;;;14.40;99.90;;;;;;5033673;28;20220;-78
2023/04/30 06:34:36;;;;;;;6.93;6.23;;;14.40;99.90;;;;;;5009205;28;20294;-79
2023/04/30 06:37:03;;;;;;;9.20;7.20;;;14.40;99.90;;;;;;5028292;28;20211;-79
2023/04/30 06:39:30;;;;;;;9.13;6.90;;;14.60;99.90;;;;;;5031372;28;20304;-80
2023/04/30 06:41:57;;;;;;;10.10;6.87;;;14.60;99.90;;;;;;5007464;28;20254;-80
2023/04/30 06:44:24;;;;;;;7.20;6.47;;;14.50;99.90;;;;;;5029525;28;20195;-81
2023/04/30 06:46:50;;;;;;;7.80;6.57;;;14.60;99.90;;;;;;5034482;22;20533;-76
2023/04/30 06:49:17;;;;;;;8.50;7.23;;;14.70;99.90;;;;;;5043884;28;20201;-78
2023/04/30 06:51:45;;;;;;;8.43;7.37;;;14.80;99.90;;;;;;5055304;28;20714;-78
2023/04/30 06:54:13;;;;;;;9.47;7.47;;;14.80;99.90;;;;;;5052550;28;20228;-78
2023/04/30 06:56:40;;;;;;;8.43;6.77;;;14.70;99.90;;;;;;5051223;28;20198;-77
2023/04/30 06:59:07;;;;;;;8.73;7.17;;;14.70;99.90;;;;;;5053898;28;20202;-77
2023/04/30 07:01:34;;;;;;;7.57;6.83;;;14.80;99.90;;;;;;5044259;28;20203;-79
2023/04/30 07:04:01;;;;;;;9.07;7.97;;;14.70;99.90;;;;;;5039795;28;20230;-78
2023/04/30 07:06:29;;;;;;;9.43;7.10;;;14.70;99.90;;;;;;5049597;28;20206;-78
2023/04/30 07:08:57;;;;;;;7.90;6.80;;;14.70;99.90;;;;;;5036306;28;20203;-78
2023/04/30 07:11:24;;;;;;;8.77;7.23;;;14.80;99.90;;;;;;5047813;28;20197;-78
2023/04/30 07:13:51;;;;;;;8.30;7.03;;;15.10;99.90;;;;;;5042331;28;20218;-78
2023/04/30 07:16:17;;;;;;;8.43;6.73;;;15.40;99.90;;;;;;5044041;28;20218;-79
2023/04/30 07:18:47;;;;;;;8.17;7.20;;;15.50;99.90;;;;;;5056392;28;20237;-78
2023/04/30 07:21:14;;;;;;;6.93;6.23;;;15.30;99.90;;;;;;5048730;28;20195;-78
2023/04/30 07:23:41;;;;;;;7.77;6.93;;;15.50;99.90;;;;;;5064431;28;20222;-79
2023/04/30 07:26:09;;;;;;;8.57;7.03;;;15.70;99.90;;;;;;5054915;28;20218;-79
2023/04/30 07:28:36;;;;;;;8.50;7.20;;;15.70;99.90;;;;;;5059281;28;20646;-79
2023/04/30 07:31:03;;;;;;;7.73;6.37;;;15.70;99.90;;;;;;5065033;28;20195;-77
2023/04/30 07:33:30;;;;;;;7.80;7.00;;;15.90;99.90;;;;;;5073553;28;20697;-78
2023/04/30 07:35:57;;;;;;;8.63;6.93;;;15.70;99.90;;;;;;5048816;28;20219;-81
2023/04/30 07:38:24;;;;;;;9.23;7.20;;;15.80;99.90;;;;;;5049309;28;20215;-81
2023/04/30 07:40:51;;;;;;;7.10;6.40;;;15.90;99.90;;;;;;5056497;28;20328;-80
2023/04/30 07:43:45;;;;;;;6.80;6.10;;;16.10;99.90;;;;;;5040970;28;20200;-81
2023/04/30 07:46:12;;;;;;;9.57;6.30;;;16.80;99.90;;;;;;5043805;28;20667;-81
2023/04/30 07:48:40;;;;;;;6.43;5.83;;;16.90;99.90;;;;;;5056547;28;20223;-78
2023/04/30 07:51:06;;;;;;;6.47;5.67;;;17.50;99.90;;;;;;5054391;28;20195;-78
2023/04/30 07:53:33;;;;;;;7.30;6.43;;;17.80;99.90;;;;;;5064942;28;20214;-82
2023/04/30 07:56:00;;;;;;;7.27;5.90;;;17.90;99.90;;;;;;5051290;28;20204;-81
2023/04/30 07:58:27;;;;;;;6.90;6.20;;;18.70;99.90;;;;;;5052053;28;20675;-81
2023/04/30 08:00:55;;;;;;;6.57;5.43;;;18.90;99.90;;;;;;5048403;28;20321;-77
2023/04/30 08:03:22;;;;;;;5.53;4.93;;;19.00;99.90;;;;;;5054584;28;20218;-78
2023/04/30 08:05:49;;;;;;;5.87;5.00;;;19.00;99.90;;;;;;5032708;28;20195;-78
2023/04/30 08:08:15;;;;;;;4.73;4.27;;;19.20;99.90;;;;;;5038257;28;20280;-78
2023/04/30 08:10:42;;;;;;;5.97;5.37;;;19.60;99.90;;;;;;5052050;28;20207;-78
2023/04/30 08:13:09;;;;;;;6.47;5.30;;;19.30;99.90;;;;;;5045576;28;20195;-78
2023/04/30 08:15:36;;;;;;;5.50;5.00;;;19.60;99.90;;;;;;5058851;28;20251;-78
2023/04/30 08:18:04;;;;;;;5.50;4.73;;;19.30;99.90;;;;;;5043877;28;20272;-78
2023/04/30 08:20:32;;;;;;;4.80;4.40;;;19.50;99.90;;;;;;5044115;28;20223;-78
2023/04/30 08:22:59;;;;;;;5.20;4.60;;;19.00;99.90;;;;;;5054793;28;20195;-78
2023/04/30 08:25:26;;;;;;;4.77;4.33;;;18.60;99.90;;;;;;5037334;28;20192;-78
2023/04/30 08:27:53;;;;;;;4.90;4.40;;;18.60;99.90;;;;;;5039720;28;20780;-78
2023/04/30 08:30:20;;;;;;;6.10;4.60;;;18.70;99.90;;;;;;5041230;28;20230;-78
2023/04/30 08:32:46;;;;;;;5.07;4.07;;;18.90;99.90;;;;;;5055325;28;20191;-79
2023/04/30 08:35:15;;;;;;;5.80;4.33;;;18.60;99.90;;;;;;5055597;28;20223;-78
2023/04/30 08:37:42;;;;;;;4.27;3.87;;;18.90;99.90;;;;;;5058013;28;20233;-78
2023/04/30 08:40:10;;;;;;;5.40;4.90;;;18.70;99.90;;;;;;5057455;28;20199;-78
2023/04/30 08:42:42;;;;;;;5.80;4.27;;;18.60;99.90;;;;;;5046613;28;20207;-78
2023/04/30 08:45:13;;;;;;;4.70;4.27;;;18.30;99.90;;;;;;5059711;28;20187;-78
2023/04/30 08:47:40;;;;;;;5.70;5.20;;;17.80;99.90;;;;;;5060021;28;20283;-78
2023/04/30 08:50:08;;;;;;;5.07;4.57;;;17.70;99.90;;;;;;5048225;28;20655;-78
2023/04/30 08:52:38;;;;;;;7.20;6.50;;;17.80;99.90;;;;;;5064553;28;20203;-78
2023/04/30 08:55:09;;;;;;;5.80;4.43;;;17.90;99.90;;;;;;5047523;28;20229;-77
2023/04/30 08:57:37;;;;;;;7.73;7.13;;;17.90;99.90;;;;;;5057264;28;20230;-78
2023/04/30 09:00:06;;;;;;;7.43;6.70;;;17.80;99.90;;;;;;5052780;28;20201;-78
2023/04/30 09:02:33;;;;;;;4.47;4.03;;;18.00;99.90;;;;;;5055098;28;20221;-77
2023/04/30 09:04:59;;;;;;;4.87;3.97;;;18.10;99.90;;;;;;5046722;28;20201;-78
2023/04/30 09:07:27;;;;;;;4.27;3.87;;;18.10;99.90;;;;;;5045549;28;20219;-78
2023/04/30 09:09:57;;;;;;;7.80;4.30;;;18.10;99.90;;;;;;5054631;28;20575;-78
2023/04/30 09:12:24;;;;;;;3.90;3.50;;;18.20;99.90;;;;;;5053607;28;20187;-78
2023/04/30 09:15:02;;;;;;;4.90;4.40;;;17.90;99.90;;;;;;5053957;28;20701;-77
2023/04/30 09:17:29;;;;;;;4.73;3.87;;;17.80;99.90;;;;;;5050521;28;20219;-77
2023/04/30 09:20:06;;;;;;;5.23;4.53;;;18.00;99.90;;;;;;5051879;28;20609;-79
2023/04/30 09:22:33;;;;;;;4.80;4.40;;;17.80;99.90;;;;;;5054019;28;20213;-81
2023/04/30 09:25:01;;;;;;;4.73;4.00;;;17.70;99.90;;;;;;5035913;28;20202;-77
2023/04/30 09:27:28;;;;;;;4.60;3.78;;;17.70;99.90;;;;;;5041885;28;20442;-78
2023/04/30 09:29:55;;;;;;;3.72;3.42;;;17.80;99.90;;;;;;5054017;28;20483;-78
2023/04/30 09:32:22;;;;;;;4.30;3.90;;;17.80;99.90;;;;;;5054400;28;20565;-77
2023/04/30 09:34:49;;;;;;;5.17;3.77;;;17.90;99.90;;;;;;5051120;28;20660;-78
2023/04/30 09:37:15;;;;;;;3.93;3.53;;;17.60;99.90;;;;;;5036180;28;20238;-81
2023/04/30 09:39:54;;;;;;;4.73;3.67;;;17.60;99.90;;;;;;5052101;28;20689;-82
2023/04/30 09:42:22;;;;;;;3.60;3.30;;;17.80;99.90;;;;;;5045974;28;20293;-82
2023/04/30 09:44:49;;;;;;;6.60;3.20;;;17.50;99.90;;;;;;5034892;28;20202;-82
2023/04/30 09:47:17;;;;;;;5.37;3.60;;;17.70;99.90;;;;;;5045225;28;20227;-81
2023/04/30 09:49:50;;;;;;;4.70;3.43;;;17.80;99.90;;;;;;5056575;28;20244;-79
2023/04/30 09:52:17;;;;;;;4.10;3.70;;;17.60;99.90;;;;;;5039943;28;20565;-82
2023/04/30 09:54:57;;;;;;;4.00;3.60;;;17.60;99.90;;;;;;5052772;28;20670;-84
2023/04/30 09:57:35;;;;;;;5.53;4.10;;;17.60;99.90;;;;;;5052807;28;20715;-84
2023/04/30 10:00:03;;;;;;;4.00;3.47;;;17.70;99.90;;;;;;5052200;28;20194;-84
2023/04/30 10:02:37;;;;;;;3.80;3.50;;;17.80;99.90;;;;;;5053232;28;20202;-84
2023/04/30 10:05:05;;;;;;;4.27;3.73;;;17.90;99.90;;;;;;5036787;28;20206;-84
2023/04/30 10:07:37;;;;;;;3.93;3.60;;;17.90;99.90;;;;;;5036182;28;20225;-84
2023/04/30 10:10:08;;;;;;;4.37;3.40;;;17.90;99.90;;;;;;5037293;28;20203;-82
2023/04/30 10:12:43;;;;;;;4.10;3.50;;;17.90;99.90;;;;;;5048299;28;20198;-82
2023/04/30 10:15:15;;;;;;;3.63;3.30;;;17.80;99.90;;;;;;5048474;28;20462;-82
2023/04/30 10:17:47;;;;;;;4.10;3.67;;;17.60;99.90;;;;;;5036235;28;20320;-82
2023/04/30 10:20:17;;;;;;;4.20;3.80;;;17.40;99.90;;;;;;5043388;28;20263;-84
2023/04/30 10:22:45;;;;;;;3.77;3.47;;;17.20;99.90;;;;;;5043991;28;20198;-81
2023/04/30 10:25:12;;;;;;;3.80;3.50;;;17.30;99.90;;;;;;5051457;28;20233;-82
2023/04/30 10:27:42;;;;;;;3.80;3.50;;;17.50;99.90;;;;;;5044500;28;20255;-81
2023/04/30 10:30:11;;;;;;;3.53;3.23;;;17.30;99.90;;;;;;5046597;28;20708;-78
2023/04/30 10:32:43;;;;;;;3.90;3.50;;;17.30;99.90;;;;;;5048458;28;20201;-78
2023/04/30 10:35:17;;;;;;;3.00;2.80;;;17.50;99.90;;;;;;5042371;28;20211;-78
2023/04/30 10:37:49;;;;;;;4.03;3.43;;;17.80;99.90;;;;;;5036452;28;20230;-78
2023/04/30 10:40:16;;;;;;;4.40;3.93;;;17.90;99.90;;;;;;5042393;28;20296;-78
2023/04/30 10:42:48;;;;;;;4.70;4.20;;;17.80;99.90;;;;;;5052617;28;20967;-78
2023/04/30 10:45:16;;;;;;;3.50;3.20;;;17.90;99.90;;;;;;5049823;28;20251;-79
2023/04/30 10:47:44;;;;;;;4.43;3.40;;;18.20;99.90;;;;;;5045370;28;20740;-79
2023/04/30 10:50:11;;;;;;;3.33;3.13;;;18.20;99.90;;;;;;5051705;28;20428;-77
2023/04/30 10:52:39;;;;;;;3.27;3.00;;;18.30;99.90;;;;;;5053405;28;20207;-79
2023/04/30 10:55:07;;;;;;;3.73;3.27;;;18.20;99.90;;;;;;5052942;28;20207;-77
2023/04/30 10:57:41;;;;;;;4.33;3.53;;;17.90;99.90;;;;;;5052899;28;20710;-78
2023/04/30 11:00:26;;;;;;;4.03;3.63;;;17.70;99.90;;;;;;5035632;28;20513;-77
2023/04/30 11:03:00;;;;;;;3.53;3.23;;;17.80;99.90;;;;;;5051088;28;20544;-79
2023/04/30 11:05:37;;;;;;;3.50;3.20;;;17.50;99.90;;;;;;5045857;28;20685;-79
2023/04/30 11:08:04;;;;;;;4.17;3.70;;;17.40;99.90;;;;;;5047078;28;20230;-79
2023/04/30 11:10:33;;;;;;;4.20;3.67;;;17.30;99.90;;;;;;5041919;28;20682;-79
2023/04/30 11:13:04;;;;;;;4.33;3.93;;;17.10;99.90;;;;;;5051437;28;20611;-79
2023/04/30 11:15:35;;;;;;;3.70;3.40;;;17.20;99.90;;;;;;5051551;28;20255;-78
2023/04/30 11:18:02;;;;;;;3.43;3.13;;;17.40;99.90;;;;;;5051680;28;20752;-79
2023/04/30 11:20:29;;;;;;;4.20;3.80;;;17.50;99.90;;;;;;5035718;28;20204;-79
2023/04/30 11:23:08;;;;;;;3.43;3.10;;;17.40;99.90;;;;;;5043508;28;20201;-82
2023/04/30 11:25:40;;;;;;;3.90;3.60;;;17.40;99.90;;;;;;5035454;28;20681;-79
2023/04/30 11:28:08;;;;;;;3.50;3.20;;;17.40;99.90;;;;;;5049086;28;20327;-79
2023/04/30 11:30:37;;;;;;;4.43;3.53;;;17.40;99.90;;;;;;5055396;28;20204;-78
2023/04/30 11:33:04;;;;;;;5.07;3.53;;;17.60;99.90;;;;;;5051019;28;20221;-78
2023/04/30 11:35:32;;;;;;;4.27;3.37;;;17.70;99.90;;;;;;5042892;28;20206;-79
2023/04/30 11:38:00;;;;;;;4.00;3.60;;;17.80;99.90;;;;;;5042804;28;20605;-79
2023/04/30 11:50:11;;;;;;;4.17;3.70;;;17.90;99.90;;;;;;5671187;22;20235;-76
2023/04/30 11:52:39;;;;;;;3.93;3.53;;;18.00;99.90;;;;;;5012575;28;20242;-76
2023/04/30 11:55:12;;;;;;;3.53;3.10;;;17.80;99.90;;;;;;5012584;28;20707;-76
2023/04/30 11:57:43;;;;;;;3.77;3.47;;;17.90;99.90;;;;;;5012005;28;20222;-76
2023/04/30 12:00:14;;;;;;;3.77;3.40;;;17.90;99.90;;;;;;5003671;28;20213;-77
2023/04/30 12:02:44;;;;;;;3.50;3.20;;;17.90;99.90;;;;;;5002890;28;20204;-80
2023/04/30 12:05:16;;;;;;;3.67;3.37;;;17.80;99.90;;;;;;5012731;28;20250;-79
2023/04/30 12:07:51;;;;;;;4.33;3.57;;;17.90;99.90;;;;;;4997840;28;20784;-78
2023/04/30 12:10:20;;;;;;;4.00;3.60;;;17.70;99.90;;;;;;5015428;28;20242;-78
2023/04/30 12:12:48;;;;;;;3.63;3.30;;;17.80;99.90;;;;;;5015199;28;20226;-78
2023/04/30 12:15:16;;;;;;;3.67;3.30;;;18.00;99.90;;;;;;5001359;28;20286;-79
2023/04/30 12:17:44;;;;;;;3.70;3.40;;;18.10;99.90;;;;;;5015152;28;20220;-78
2023/04/30 12:20:12;;;;;;;4.13;3.00;;;18.40;99.90;;;;;;5015576;28;20298;-78
2023/04/30 12:22:40;;;;;;;5.63;3.63;;;18.20;99.90;;;;;;5015386;28;20254;-78
2023/04/30 12:25:12;;;;;;;3.43;3.10;;;18.20;99.90;;;;;;5015245;28;20547;-79
2023/04/30 12:27:40;;;;;;;3.60;3.30;;;18.50;99.90;;;;;;5015827;28;20217;-78
2023/04/30 12:30:08;;;;;;;3.27;3.00;;;18.70;99.90;;;;;;5012688;28;20266;-79
2023/04/30 12:32:42;;;;;;;3.40;3.10;;;18.80;99.90;;;;;;5007542;28;20235;-79
2023/04/30 12:35:14;;;;;;;3.57;3.27;;;18.60;99.90;;;;;;5012966;28;20199;-78
2023/04/30 12:37:44;;;;;;;3.60;3.13;;;18.40;99.90;;;;;;5005051;28;20221;-78
2023/04/30 12:40:13;;;;;;;5.60;3.00;;;18.30;99.90;;;;;;5015291;28;20193;-80
2023/04/30 12:42:41;;;;;;;4.87;2.90;;;18.60;99.90;;;;;;5019289;28;20215;-79
2023/04/30 12:45:09;;;;;;;3.73;3.43;;;19.10;99.90;;;;;;5018234;28;20269;-79
2023/04/30 12:47:40;;;;;;;3.33;3.13;;;19.30;99.90;;;;;;5002787;28;20260;-79
2023/04/30 12:50:09;;;;;;;5.30;3.47;;;19.40;99.90;;;;;;5018385;28;20212;-79
2023/04/30 12:52:37;;;;;;;4.57;4.20;;;19.60;99.90;;;;;;5014896;28;20211;-79
2023/04/30 12:55:19;;;;;;;3.30;3.00;;;19.00;99.90;;;;;;5018557;28;20192;-81
2023/04/30 12:58:07;;;;;;;4.27;3.00;;;18.80;99.90;;;;;;5018517;28;20224;-80
2023/04/30 13:00:45;;;;;;;3.30;3.00;;;18.60;99.90;;;;;;5024091;28;20200;-79
2023/04/30 13:03:12;;;;;;;3.23;2.93;;;18.80;99.90;;;;;;5016191;28;20192;-79